OSOK1: Oswego hwy 160

                                SHEF ID:       OSOK1     Oswego hwy 160
STATION TYPE:

PRECIP STAGE RIV-FLOW VOLTAGE BAT-LOAD
in ft cfs volt volt
Ccp-Rev Ccp-Rev Ccp-Rev Ccp-Rev Ccp-Rev
(America/Chicago)
02/16 00:00 0.00 13.65 4492 12.77 12.50
02/16 01:00 0.00 13.84 4728 12.75 12.47
02/16 02:00 0.00 14.06 5007 12.73 12.46
02/16 03:00 0.00 14.30 5310 12.71 12.43
02/16 04:00 0.00 14.56 5617 12.69 12.41
02/16 05:00 0.00 14.81 5916 12.67 12.39
02/16 06:00 0.00 15.06 6219 12.65 12.36
02/16 07:00 0.00 15.26 6466 12.63 12.35
02/16 08:00 0.00 15.44 6690 12.81 12.44
02/16 09:00 0.00 15.60 6891 14.30 13.52
02/16 10:00 0.00 15.68 6992 14.18 13.42
02/16 11:00 0.00 15.78 7119 14.15 13.33
02/16 12:00 0.00 15.84 7196 13.73 13.19
02/16 13:00 0.00 15.89 7260 13.68 13.11
02/16 14:00 0.00 15.91 7285 13.59 13.09
02/16 15:00 0.00 15.92 7298 13.53 13.05
02/16 16:00 0.00 15.88 7247 13.53 12.99
02/16 17:00 0.00 15.85 7208 13.68 13.01
02/16 18:00 0.00 15.81 7157 13.16 12.95
02/16 19:00 0.00 15.73 7055 12.95 12.72
02/16 20:00 0.00 15.63 6929 12.87 12.62
02/16 21:00 0.00 15.52 6790 12.84 12.57
02/16 22:00 0.00 15.39 6627 12.81 12.54
02/16 23:00 0.00 15.26 6466 12.79 12.53
Data processed at Tue 17Feb2026 05:50 GMT

NOTICE: If you are parsing this page

Please convert to using our Data API. Starting early 2026 we will be migrating to: https://water.usace.army.mil with modern pages rendered in JavaScript. When this migration completes you will no longer be able to scrape this page! CWMSDataAPI (CDA)

Timeseries IDs (TSIDs)

TSIDs used from left to right in the data table
OSWN.Precip-Inc.Total.1Hour.1Hour.Ccp-Rev
OSWN.Stage.Inst.1Hour.0.Ccp-Rev
OSWN.Flow.Inst.1Hour.0.Ccp-Rev
OSWN.Volt-Battery.Inst.1Hour.0.Ccp-Rev
OSWN.Volt-Battery Load.Inst.1Hour.0.Ccp-Rev

                            

All information presented herein is the property of the government of the United States of America and may be revised or deleted at any time without prior notice. Dissemination of this information without the expressed written consent of the Public Affairs Office, Tulsa District U.S. Army Corps of Engineers is strictly prohibited. These data are gathered electronically and, as presented, have NOT undergone any form of quality control. These data are NOT guaranteed to be valid or correct.